sensor_id;sensor_type;location;lat;lon;timestamp;P1;durP1;ratioP1;P2;durP2;ratioP2
8568;SDS011;4322;51.104;-4.162;2023-04-25T00:00:21;14.47;;;13.77;;
8568;SDS011;4322;51.104;-4.162;2023-04-25T00:02:50;13.57;;;12.87;;
8568;SDS011;4322;51.104;-4.162;2023-04-25T00:05:18;12.80;;;12.20;;
8568;SDS011;4322;51.104;-4.162;2023-04-25T00:07:47;11.80;;;11.20;;
8568;SDS011;4322;51.104;-4.162;2023-04-25T00:10:15;11.63;;;11.03;;
8568;SDS011;4322;51.104;-4.162;2023-04-25T00:12:42;10.33;;;9.83;;
8568;SDS011;4322;51.104;-4.162;2023-04-25T00:15:10;10.73;;;10.23;;
8568;SDS011;4322;51.104;-4.162;2023-04-25T00:17:38;9.57;;;9.13;;
8568;SDS011;4322;51.104;-4.162;2023-04-25T00:20:08;9.13;;;8.73;;
8568;SDS011;4322;51.104;-4.162;2023-04-25T00:22:37;9.47;;;9.07;;
8568;SDS011;4322;51.104;-4.162;2023-04-25T00:25:04;9.13;;;8.73;;
8568;SDS011;4322;51.104;-4.162;2023-04-25T00:27:32;9.47;;;9.07;;
8568;SDS011;4322;51.104;-4.162;2023-04-25T00:30:03;9.03;;;8.63;;
8568;SDS011;4322;51.104;-4.162;2023-04-25T00:32:31;8.50;;;8.10;;
8568;SDS011;4322;51.104;-4.162;2023-04-25T00:34:59;7.70;;;7.37;;
8568;SDS011;4322;51.104;-4.162;2023-04-25T00:37:28;6.87;;;6.57;;
8568;SDS011;4322;51.104;-4.162;2023-04-25T00:39:57;5.30;;;5.10;;
8568;SDS011;4322;51.104;-4.162;2023-04-25T00:42:25;5.00;;;4.80;;
8568;SDS011;4322;51.104;-4.162;2023-04-25T00:44:52;4.80;;;4.60;;
8568;SDS011;4322;51.104;-4.162;2023-04-25T00:47:20;4.30;;;4.10;;
8568;SDS011;4322;51.104;-4.162;2023-04-25T00:49:49;4.30;;;4.10;;
8568;SDS011;4322;51.104;-4.162;2023-04-25T00:52:16;4.63;;;4.43;;
8568;SDS011;4322;51.104;-4.162;2023-04-25T00:54:46;4.77;;;4.57;;
8568;SDS011;4322;51.104;-4.162;2023-04-25T00:57:13;4.30;;;4.10;;
8568;SDS011;4322;51.104;-4.162;2023-04-25T00:59:42;4.90;;;4.70;;
8568;SDS011;4322;51.104;-4.162;2023-04-25T01:02:12;4.87;;;4.67;;
8568;SDS011;4322;51.104;-4.162;2023-04-25T01:04:41;4.40;;;4.20;;
8568;SDS011;4322;51.104;-4.162;2023-04-25T01:07:08;4.60;;;4.40;;
8568;SDS011;4322;51.104;-4.162;2023-04-25T01:09:37;4.20;;;4.00;;
8568;SDS011;4322;51.104;-4.162;2023-04-25T01:12:06;4.33;;;4.13;;
8568;SDS011;4322;51.104;-4.162;2023-04-25T01:14:34;4.20;;;4.00;;
8568;SDS011;4322;51.104;-4.162;2023-04-25T01:17:02;4.17;;;3.97;;
8568;SDS011;4322;51.104;-4.162;2023-04-25T01:19:30;4.57;;;4.37;;
8568;SDS011;4322;51.104;-4.162;2023-04-25T01:21:59;4.70;;;4.50;;
8568;SDS011;4322;51.104;-4.162;2023-04-25T01:24:27;4.40;;;4.20;;
8568;SDS011;4322;51.104;-4.162;2023-04-25T01:26:55;4.33;;;4.13;;
8568;SDS011;4322;51.104;-4.162;2023-04-25T01:29:23;4.40;;;4.20;;
8568;SDS011;4322;51.104;-4.162;2023-04-25T01:31:51;4.23;;;4.03;;
8568;SDS011;4322;51.104;-4.162;2023-04-25T01:34:19;3.80;;;3.70;;
8568;SDS011;4322;51.104;-4.162;2023-04-25T01:36:47;4.13;;;3.93;;
8568;SDS011;4322;51.104;-4.162;2023-04-25T01:39:17;4.20;;;4.00;;
8568;SDS011;4322;51.104;-4.162;2023-04-25T01:41:45;4.30;;;4.10;;
8568;SDS011;4322;51.104;-4.162;2023-04-25T01:44:14;4.40;;;4.20;;
8568;SDS011;4322;51.104;-4.162;2023-04-25T01:46:42;4.37;;;4.17;;
8568;SDS011;4322;51.104;-4.162;2023-04-25T01:49:09;4.60;;;4.40;;
8568;SDS011;4322;51.104;-4.162;2023-04-25T01:51:37;4.43;;;4.23;;
8568;SDS011;4322;51.104;-4.162;2023-04-25T01:54:05;3.90;;;3.80;;
8568;SDS011;4322;51.104;-4.162;2023-04-25T01:56:36;3.67;;;3.57;;
8568;SDS011;4322;51.104;-4.162;2023-04-25T01:59:04;4.20;;;4.00;;
8568;SDS011;4322;51.104;-4.162;2023-04-25T02:01:32;4.10;;;3.90;;
8568;SDS011;4322;51.104;-4.162;2023-04-25T02:03:59;3.97;;;3.87;;
8568;SDS011;4322;51.104;-4.162;2023-04-25T02:06:28;4.23;;;4.03;;
8568;SDS011;4322;51.104;-4.162;2023-04-25T02:08:57;4.07;;;3.90;;
8568;SDS011;4322;51.104;-4.162;2023-04-25T02:11:24;4.30;;;4.10;;
8568;SDS011;4322;51.104;-4.162;2023-04-25T02:13:54;3.90;;;3.80;;
8568;SDS011;4322;51.104;-4.162;2023-04-25T02:16:21;3.73;;;3.63;;
8568;SDS011;4322;51.104;-4.162;2023-04-25T02:18:49;4.20;;;4.00;;
8568;SDS011;4322;51.104;-4.162;2023-04-25T02:21:21;4.30;;;4.10;;
8568;SDS011;4322;51.104;-4.162;2023-04-25T02:23:49;4.40;;;4.20;;
8568;SDS011;4322;51.104;-4.162;2023-04-25T02:26:18;4.40;;;4.20;;
8568;SDS011;4322;51.104;-4.162;2023-04-25T02:28:47;4.10;;;3.90;;
8568;SDS011;4322;51.104;-4.162;2023-04-25T02:31:22;4.10;;;3.90;;
8568;SDS011;4322;51.104;-4.162;2023-04-25T02:33:51;4.23;;;4.03;;
8568;SDS011;4322;51.104;-4.162;2023-04-25T02:36:19;4.17;;;3.97;;
8568;SDS011;4322;51.104;-4.162;2023-04-25T02:38:46;4.20;;;4.00;;
8568;SDS011;4322;51.104;-4.162;2023-04-25T02:41:14;3.90;;;3.80;;
8568;SDS011;4322;51.104;-4.162;2023-04-25T02:43:42;3.60;;;3.50;;
8568;SDS011;4322;51.104;-4.162;2023-04-25T02:46:10;3.90;;;3.80;;
8568;SDS011;4322;51.104;-4.162;2023-04-25T02:48:39;4.10;;;3.90;;
8568;SDS011;4322;51.104;-4.162;2023-04-25T02:51:07;4.10;;;3.90;;
8568;SDS011;4322;51.104;-4.162;2023-04-25T02:53:34;3.70;;;3.60;;
8568;SDS011;4322;51.104;-4.162;2023-04-25T02:56:02;3.90;;;3.80;;
8568;SDS011;4322;51.104;-4.162;2023-04-25T02:58:30;4.03;;;3.87;;
8568;SDS011;4322;51.104;-4.162;2023-04-25T03:00:58;3.87;;;3.77;;
8568;SDS011;4322;51.104;-4.162;2023-04-25T03:03:27;3.83;;;3.73;;
8568;SDS011;4322;51.104;-4.162;2023-04-25T03:05:56;3.67;;;3.57;;
8568;SDS011;4322;51.104;-4.162;2023-04-25T03:08:24;4.17;;;3.97;;
8568;SDS011;4322;51.104;-4.162;2023-04-25T03:10:55;3.73;;;3.63;;
8568;SDS011;4322;51.104;-4.162;2023-04-25T03:13:23;3.80;;;3.70;;
8568;SDS011;4322;51.104;-4.162;2023-04-25T03:15:52;3.37;;;3.27;;
8568;SDS011;4322;51.104;-4.162;2023-04-25T03:18:19;3.30;;;3.20;;
8568;SDS011;4322;51.104;-4.162;2023-04-25T03:20:47;3.70;;;3.60;;
8568;SDS011;4322;51.104;-4.162;2023-04-25T03:23:19;3.50;;;3.40;;
8568;SDS011;4322;51.104;-4.162;2023-04-25T03:25:47;4.00;;;3.83;;
8568;SDS011;4322;51.104;-4.162;2023-04-25T03:28:14;3.90;;;3.80;;
8568;SDS011;4322;51.104;-4.162;2023-04-25T03:30:42;3.57;;;3.47;;
8568;SDS011;4322;51.104;-4.162;2023-04-25T03:33:10;3.57;;;3.47;;
8568;SDS011;4322;51.104;-4.162;2023-04-25T03:35:38;3.60;;;3.50;;
8568;SDS011;4322;51.104;-4.162;2023-04-25T03:38:05;4.10;;;3.90;;
8568;SDS011;4322;51.104;-4.162;2023-04-25T03:40:35;3.47;;;3.37;;
8568;SDS011;4322;51.104;-4.162;2023-04-25T03:43:02;4.10;;;3.90;;
8568;SDS011;4322;51.104;-4.162;2023-04-25T03:45:30;3.80;;;3.70;;
8568;SDS011;4322;51.104;-4.162;2023-04-25T03:47:58;3.90;;;3.80;;
8568;SDS011;4322;51.104;-4.162;2023-04-25T03:50:26;4.20;;;4.00;;
8568;SDS011;4322;51.104;-4.162;2023-04-25T03:52:54;3.73;;;3.63;;
8568;SDS011;4322;51.104;-4.162;2023-04-25T03:55:22;3.83;;;3.73;;
8568;SDS011;4322;51.104;-4.162;2023-04-25T03:57:51;4.07;;;3.87;;
8568;SDS011;4322;51.104;-4.162;2023-04-25T04:00:19;3.80;;;3.70;;
8568;SDS011;4322;51.104;-4.162;2023-04-25T04:02:46;3.90;;;3.80;;
8568;SDS011;4322;51.104;-4.162;2023-04-25T04:05:14;3.60;;;3.50;;
8568;SDS011;4322;51.104;-4.162;2023-04-25T04:07:42;3.70;;;3.60;;
8568;SDS011;4322;51.104;-4.162;2023-04-25T04:10:10;3.80;;;3.70;;
8568;SDS011;4322;51.104;-4.162;2023-04-25T04:12:38;4.33;;;4.13;;
8568;SDS011;4322;51.104;-4.162;2023-04-25T04:15:09;3.97;;;3.87;;
8568;SDS011;4322;51.104;-4.162;2023-04-25T04:17:37;4.10;;;3.90;;
8568;SDS011;4322;51.104;-4.162;2023-04-25T04:20:05;4.30;;;4.10;;
8568;SDS011;4322;51.104;-4.162;2023-04-25T04:22:34;3.90;;;3.80;;
8568;SDS011;4322;51.104;-4.162;2023-04-25T04:25:02;4.20;;;4.00;;
8568;SDS011;4322;51.104;-4.162;2023-04-25T04:27:32;4.00;;;3.87;;
8568;SDS011;4322;51.104;-4.162;2023-04-25T04:30:00;3.57;;;3.47;;
8568;SDS011;4322;51.104;-4.162;2023-04-25T04:32:31;4.37;;;4.17;;
8568;SDS011;4322;51.104;-4.162;2023-04-25T04:34:59;3.90;;;3.80;;
8568;SDS011;4322;51.104;-4.162;2023-04-25T04:37:27;3.77;;;3.67;;
8568;SDS011;4322;51.104;-4.162;2023-04-25T04:39:55;3.93;;;3.80;;
8568;SDS011;4322;51.104;-4.162;2023-04-25T04:42:23;3.90;;;3.80;;
8568;SDS011;4322;51.104;-4.162;2023-04-25T04:44:51;3.90;;;3.80;;
8568;SDS011;4322;51.104;-4.162;2023-04-25T04:47:21;4.20;;;4.00;;
8568;SDS011;4322;51.104;-4.162;2023-04-25T04:49:51;3.97;;;3.83;;
8568;SDS011;4322;51.104;-4.162;2023-04-25T04:52:19;3.90;;;3.80;;
8568;SDS011;4322;51.104;-4.162;2023-04-25T04:54:46;4.10;;;3.90;;
8568;SDS011;4322;51.104;-4.162;2023-04-25T04:57:14;4.30;;;4.10;;
8568;SDS011;4322;51.104;-4.162;2023-04-25T04:59:45;4.10;;;3.90;;
8568;SDS011;4322;51.104;-4.162;2023-04-25T05:02:13;4.13;;;3.93;;
8568;SDS011;4322;51.104;-4.162;2023-04-25T05:04:40;3.80;;;3.70;;
8568;SDS011;4322;51.104;-4.162;2023-04-25T05:07:10;3.67;;;3.57;;
8568;SDS011;4322;51.104;-4.162;2023-04-25T05:09:37;3.50;;;3.40;;
8568;SDS011;4322;51.104;-4.162;2023-04-25T05:12:05;3.40;;;3.30;;
8568;SDS011;4322;51.104;-4.162;2023-04-25T05:14:33;3.70;;;3.60;;
8568;SDS011;4322;51.104;-4.162;2023-04-25T05:17:01;3.40;;;3.30;;
8568;SDS011;4322;51.104;-4.162;2023-04-25T05:19:31;3.70;;;3.60;;
8568;SDS011;4322;51.104;-4.162;2023-04-25T05:22:01;3.37;;;3.27;;
8568;SDS011;4322;51.104;-4.162;2023-04-25T05:24:30;3.60;;;3.50;;
8568;SDS011;4322;51.104;-4.162;2023-04-25T05:26:58;3.40;;;3.30;;
8568;SDS011;4322;51.104;-4.162;2023-04-25T05:29:26;3.80;;;3.70;;
8568;SDS011;4322;51.104;-4.162;2023-04-25T05:31:54;3.57;;;3.47;;
8568;SDS011;4322;51.104;-4.162;2023-04-25T05:34:21;3.67;;;3.57;;
8568;SDS011;4322;51.104;-4.162;2023-04-25T05:36:49;3.70;;;3.60;;
8568;SDS011;4322;51.104;-4.162;2023-04-25T05:39:17;3.70;;;3.60;;
8568;SDS011;4322;51.104;-4.162;2023-04-25T05:41:46;3.53;;;3.43;;
8568;SDS011;4322;51.104;-4.162;2023-04-25T05:44:14;3.47;;;3.37;;
8568;SDS011;4322;51.104;-4.162;2023-04-25T05:46:43;3.23;;;3.13;;
8568;SDS011;4322;51.104;-4.162;2023-04-25T05:49:10;3.50;;;3.40;;
8568;SDS011;4322;51.104;-4.162;2023-04-25T05:51:38;3.83;;;3.73;;
8568;SDS011;4322;51.104;-4.162;2023-04-25T05:54:06;3.80;;;3.70;;
8568;SDS011;4322;51.104;-4.162;2023-04-25T05:56:34;3.80;;;3.70;;
8568;SDS011;4322;51.104;-4.162;2023-04-25T05:59:03;3.60;;;3.50;;
8568;SDS011;4322;51.104;-4.162;2023-04-25T06:01:31;3.80;;;3.70;;
8568;SDS011;4322;51.104;-4.162;2023-04-25T06:03:59;3.70;;;3.60;;
8568;SDS011;4322;51.104;-4.162;2023-04-25T06:06:28;3.80;;;3.70;;
8568;SDS011;4322;51.104;-4.162;2023-04-25T06:08:59;3.70;;;3.60;;
8568;SDS011;4322;51.104;-4.162;2023-04-25T06:11:27;3.80;;;3.70;;
8568;SDS011;4322;51.104;-4.162;2023-04-25T06:13:54;3.53;;;3.43;;
8568;SDS011;4322;51.104;-4.162;2023-04-25T06:16:24;4.20;;;4.00;;
8568;SDS011;4322;51.104;-4.162;2023-04-25T06:18:52;4.27;;;4.07;;
8568;SDS011;4322;51.104;-4.162;2023-04-25T06:21:20;3.50;;;3.40;;
8568;SDS011;4322;51.104;-4.162;2023-04-25T06:23:48;3.10;;;3.00;;
8568;SDS011;4322;51.104;-4.162;2023-04-25T06:26:16;3.37;;;3.27;;
8568;SDS011;4322;51.104;-4.162;2023-04-25T06:28:44;3.60;;;3.50;;
8568;SDS011;4322;51.104;-4.162;2023-04-25T06:31:12;3.70;;;3.60;;
8568;SDS011;4322;51.104;-4.162;2023-04-25T06:33:41;3.20;;;3.10;;
8568;SDS011;4322;51.104;-4.162;2023-04-25T06:36:09;3.10;;;3.00;;
8568;SDS011;4322;51.104;-4.162;2023-04-25T06:38:37;3.10;;;3.00;;
8568;SDS011;4322;51.104;-4.162;2023-04-25T06:41:04;3.10;;;3.00;;
8568;SDS011;4322;51.104;-4.162;2023-04-25T06:43:32;3.20;;;3.10;;
8568;SDS011;4322;51.104;-4.162;2023-04-25T06:46:00;3.20;;;3.10;;
8568;SDS011;4322;51.104;-4.162;2023-04-25T06:48:28;3.23;;;3.13;;
8568;SDS011;4322;51.104;-4.162;2023-04-25T06:50:57;3.60;;;3.50;;
8568;SDS011;4322;51.104;-4.162;2023-04-25T06:53:25;3.40;;;3.30;;
8568;SDS011;4322;51.104;-4.162;2023-04-25T06:55:53;3.60;;;3.50;;
8568;SDS011;4322;51.104;-4.162;2023-04-25T06:58:20;3.50;;;3.40;;
8568;SDS011;4322;51.104;-4.162;2023-04-25T07:00:48;3.43;;;3.33;;
8568;SDS011;4322;51.104;-4.162;2023-04-25T07:03:16;3.57;;;3.47;;
8568;SDS011;4322;51.104;-4.162;2023-04-25T07:05:44;3.30;;;3.20;;
8568;SDS011;4322;51.104;-4.162;2023-04-25T07:08:13;3.57;;;3.47;;
8568;SDS011;4322;51.104;-4.162;2023-04-25T07:10:41;3.30;;;3.20;;
8568;SDS011;4322;51.104;-4.162;2023-04-25T07:13:09;3.33;;;3.23;;
8568;SDS011;4322;51.104;-4.162;2023-04-25T07:15:37;3.50;;;3.40;;
8568;SDS011;4322;51.104;-4.162;2023-04-25T07:18:04;3.40;;;3.30;;
8568;SDS011;4322;51.104;-4.162;2023-04-25T07:20:32;3.80;;;3.70;;
8568;SDS011;4322;51.104;-4.162;2023-04-25T07:23:00;4.03;;;3.87;;
8568;SDS011;4322;51.104;-4.162;2023-04-25T07:25:29;3.20;;;3.10;;
8568;SDS011;4322;51.104;-4.162;2023-04-25T07:27:58;3.60;;;3.50;;
8568;SDS011;4322;51.104;-4.162;2023-04-25T07:30:25;3.77;;;3.67;;
8568;SDS011;4322;51.104;-4.162;2023-04-25T07:32:53;3.90;;;3.80;;
8568;SDS011;4322;51.104;-4.162;2023-04-25T07:35:21;3.97;;;3.80;;
8568;SDS011;4322;51.104;-4.162;2023-04-25T07:37:49;3.97;;;3.83;;
8568;SDS011;4322;51.104;-4.162;2023-04-25T07:40:17;4.47;;;4.27;;
8568;SDS011;4322;51.104;-4.162;2023-04-25T07:42:47;3.90;;;3.80;;
8568;SDS011;4322;51.104;-4.162;2023-04-25T07:45:14;4.10;;;3.90;;
8568;SDS011;4322;51.104;-4.162;2023-04-25T07:47:42;4.30;;;4.10;;
8568;SDS011;4322;51.104;-4.162;2023-04-25T07:50:10;3.90;;;3.80;;
8568;SDS011;4322;51.104;-4.162;2023-04-25T07:52:38;4.20;;;4.00;;
8568;SDS011;4322;51.104;-4.162;2023-04-25T07:55:06;3.63;;;3.53;;
8568;SDS011;4322;51.104;-4.162;2023-04-25T07:57:34;4.30;;;4.10;;
8568;SDS011;4322;51.104;-4.162;2023-04-25T08:00:04;4.17;;;3.97;;
8568;SDS011;4322;51.104;-4.162;2023-04-25T08:02:35;4.03;;;3.87;;
8568;SDS011;4322;51.104;-4.162;2023-04-25T08:05:03;3.43;;;3.33;;
8568;SDS011;4322;51.104;-4.162;2023-04-25T08:07:33;3.60;;;3.50;;
8568;SDS011;4322;51.104;-4.162;2023-04-25T08:10:01;3.33;;;3.23;;
8568;SDS011;4322;51.104;-4.162;2023-04-25T08:12:29;3.70;;;3.60;;
8568;SDS011;4322;51.104;-4.162;2023-04-25T08:14:57;3.80;;;3.70;;
8568;SDS011;4322;51.104;-4.162;2023-04-25T08:17:26;3.23;;;3.13;;
8568;SDS011;4322;51.104;-4.162;2023-04-25T08:19:54;3.07;;;2.97;;
8568;SDS011;4322;51.104;-4.162;2023-04-25T08:22:22;3.40;;;3.30;;
8568;SDS011;4322;51.104;-4.162;2023-04-25T08:24:53;3.00;;;2.90;;
8568;SDS011;4322;51.104;-4.162;2023-04-25T08:27:21;2.40;;;2.30;;
8568;SDS011;4322;51.104;-4.162;2023-04-25T08:29:48;2.43;;;2.33;;
8568;SDS011;4322;51.104;-4.162;2023-04-25T08:32:16;2.07;;;2.07;;
8568;SDS011;4322;51.104;-4.162;2023-04-25T08:34:46;1.80;;;1.80;;
8568;SDS011;4322;51.104;-4.162;2023-04-25T08:37:13;1.70;;;1.70;;
8568;SDS011;4322;51.104;-4.162;2023-04-25T08:39:41;1.70;;;1.70;;
8568;SDS011;4322;51.104;-4.162;2023-04-25T08:42:09;1.30;;;1.30;;
8568;SDS011;4322;51.104;-4.162;2023-04-25T08:44:38;1.27;;;1.27;;
8568;SDS011;4322;51.104;-4.162;2023-04-25T08:47:06;1.30;;;1.30;;
8568;SDS011;4322;51.104;-4.162;2023-04-25T08:49:34;1.30;;;1.30;;
8568;SDS011;4322;51.104;-4.162;2023-04-25T08:52:04;1.20;;;1.20;;
8568;SDS011;4322;51.104;-4.162;2023-04-25T08:54:33;1.23;;;1.23;;
8568;SDS011;4322;51.104;-4.162;2023-04-25T08:57:04;1.30;;;1.30;;
8568;SDS011;4322;51.104;-4.162;2023-04-25T08:59:34;1.27;;;1.27;;
8568;SDS011;4322;51.104;-4.162;2023-04-25T09:02:04;1.27;;;1.27;;
8568;SDS011;4322;51.104;-4.162;2023-04-25T09:04:32;1.40;;;1.40;;
8568;SDS011;4322;51.104;-4.162;2023-04-25T09:07:00;1.50;;;1.50;;
8568;SDS011;4322;51.104;-4.162;2023-04-25T09:09:29;1.30;;;1.30;;
8568;SDS011;4322;51.104;-4.162;2023-04-25T09:11:57;1.20;;;1.20;;
8568;SDS011;4322;51.104;-4.162;2023-04-25T09:14:25;1.40;;;1.40;;
8568;SDS011;4322;51.104;-4.162;2023-04-25T09:16:58;1.20;;;1.20;;
8568;SDS011;4322;51.104;-4.162;2023-04-25T09:19:27;1.20;;;1.20;;
8568;SDS011;4322;51.104;-4.162;2023-04-25T09:22:07;1.20;;;1.20;;
8568;SDS011;4322;51.104;-4.162;2023-04-25T09:24:37;1.10;;;1.10;;
8568;SDS011;4322;51.104;-4.162;2023-04-25T09:27:06;1.03;;;1.03;;
8568;SDS011;4322;51.104;-4.162;2023-04-25T09:29:34;1.10;;;1.10;;
8568;SDS011;4322;51.104;-4.162;2023-04-25T09:32:13;1.10;;;1.10;;
8568;SDS011;4322;51.104;-4.162;2023-04-25T09:34:42;1.00;;;1.00;;
8568;SDS011;4322;51.104;-4.162;2023-04-25T09:37:10;1.00;;;1.00;;
8568;SDS011;4322;51.104;-4.162;2023-04-25T09:39:39;1.10;;;1.10;;
8568;SDS011;4322;51.104;-4.162;2023-04-25T09:42:07;0.90;;;0.90;;
8568;SDS011;4322;51.104;-4.162;2023-04-25T09:44:36;0.90;;;0.90;;
8568;SDS011;4322;51.104;-4.162;2023-04-25T09:47:05;0.80;;;0.80;;
8568;SDS011;4322;51.104;-4.162;2023-04-25T09:49:38;0.80;;;0.80;;
8568;SDS011;4322;51.104;-4.162;2023-04-25T09:52:06;0.90;;;0.90;;
8568;SDS011;4322;51.104;-4.162;2023-04-25T09:54:34;0.90;;;0.90;;
8568;SDS011;4322;51.104;-4.162;2023-04-25T09:57:06;0.93;;;0.93;;
8568;SDS011;4322;51.104;-4.162;2023-04-25T09:59:38;1.00;;;1.00;;
8568;SDS011;4322;51.104;-4.162;2023-04-25T10:02:07;0.90;;;0.90;;
8568;SDS011;4322;51.104;-4.162;2023-04-25T10:04:35;0.90;;;0.90;;
8568;SDS011;4322;51.104;-4.162;2023-04-25T10:07:03;1.10;;;1.10;;
8568;SDS011;4322;51.104;-4.162;2023-04-25T10:09:32;1.07;;;1.07;;
8568;SDS011;4322;51.104;-4.162;2023-04-25T10:12:01;1.10;;;1.10;;
8568;SDS011;4322;51.104;-4.162;2023-04-25T10:14:31;1.10;;;1.10;;
8568;SDS011;4322;51.104;-4.162;2023-04-25T10:16:59;1.00;;;1.00;;
8568;SDS011;4322;51.104;-4.162;2023-04-25T10:19:27;1.10;;;1.10;;
8568;SDS011;4322;51.104;-4.162;2023-04-25T10:21:58;1.10;;;1.10;;
8568;SDS011;4322;51.104;-4.162;2023-04-25T10:24:29;0.90;;;0.90;;
8568;SDS011;4322;51.104;-4.162;2023-04-25T10:26:57;0.93;;;0.93;;
8568;SDS011;4322;51.104;-4.162;2023-04-25T10:29:25;1.00;;;1.00;;
8568;SDS011;4322;51.104;-4.162;2023-04-25T10:31:54;1.00;;;1.00;;
8568;SDS011;4322;51.104;-4.162;2023-04-25T10:34:37;1.00;;;1.00;;
8568;SDS011;4322;51.104;-4.162;2023-04-25T10:37:08;0.80;;;0.80;;
8568;SDS011;4322;51.104;-4.162;2023-04-25T10:39:37;0.90;;;0.90;;
8568;SDS011;4322;51.104;-4.162;2023-04-25T10:42:05;1.00;;;1.00;;
8568;SDS011;4322;51.104;-4.162;2023-04-25T10:44:34;1.00;;;1.00;;
8568;SDS011;4322;51.104;-4.162;2023-04-25T10:47:03;0.93;;;0.93;;
8568;SDS011;4322;51.104;-4.162;2023-04-25T10:49:34;1.00;;;1.00;;
8568;SDS011;4322;51.104;-4.162;2023-04-25T10:52:18;0.83;;;0.83;;
8568;SDS011;4322;51.104;-4.162;2023-04-25T10:54:46;0.90;;;0.90;;
8568;SDS011;4322;51.104;-4.162;2023-04-25T11:00:05;0.90;;;0.90;;
8568;SDS011;4322;51.104;-4.162;2023-04-25T11:02:43;0.90;;;0.90;;
8568;SDS011;4322;51.104;-4.162;2023-04-25T11:05:20;1.00;;;1.00;;
8568;SDS011;4322;51.104;-4.162;2023-04-25T11:07:50;0.90;;;0.90;;
8568;SDS011;4322;51.104;-4.162;2023-04-25T11:10:29;0.80;;;0.80;;
8568;SDS011;4322;51.104;-4.162;2023-04-25T11:12:57;1.00;;;1.00;;
8568;SDS011;4322;51.104;-4.162;2023-04-25T11:15:26;1.10;;;1.10;;
8568;SDS011;4322;51.104;-4.162;2023-04-25T11:17:55;1.10;;;1.10;;
8568;SDS011;4322;51.104;-4.162;2023-04-25T11:20:25;1.00;;;1.00;;
8568;SDS011;4322;51.104;-4.162;2023-04-25T11:22:56;1.10;;;1.10;;
8568;SDS011;4322;51.104;-4.162;2023-04-25T11:25:24;1.10;;;1.10;;
8568;SDS011;4322;51.104;-4.162;2023-04-25T11:27:53;1.00;;;1.00;;
8568;SDS011;4322;51.104;-4.162;2023-04-25T11:30:22;1.10;;;1.10;;
8568;SDS011;4322;51.104;-4.162;2023-04-25T11:32:50;1.20;;;1.20;;
8568;SDS011;4322;51.104;-4.162;2023-04-25T11:35:20;1.10;;;1.10;;
8568;SDS011;4322;51.104;-4.162;2023-04-25T11:37:49;1.07;;;1.07;;
8568;SDS011;4322;51.104;-4.162;2023-04-25T11:40:17;1.00;;;1.00;;
8568;SDS011;4322;51.104;-4.162;2023-04-25T11:42:45;1.03;;;1.03;;
8568;SDS011;4322;51.104;-4.162;2023-04-25T11:45:13;1.10;;;1.10;;
8568;SDS011;4322;51.104;-4.162;2023-04-25T11:47:41;1.20;;;1.20;;
8568;SDS011;4322;51.104;-4.162;2023-04-25T11:50:09;1.10;;;1.10;;
8568;SDS011;4322;51.104;-4.162;2023-04-25T11:52:39;0.90;;;0.90;;
8568;SDS011;4322;51.104;-4.162;2023-04-25T11:55:08;1.10;;;1.10;;
8568;SDS011;4322;51.104;-4.162;2023-04-25T11:57:37;1.10;;;1.10;;
8568;SDS011;4322;51.104;-4.162;2023-04-25T12:00:09;1.20;;;1.20;;
8568;SDS011;4322;51.104;-4.162;2023-04-25T12:02:42;1.10;;;1.10;;
8568;SDS011;4322;51.104;-4.162;2023-04-25T12:05:11;1.20;;;1.20;;
8568;SDS011;4322;51.104;-4.162;2023-04-25T12:07:59;1.20;;;1.20;;
8568;SDS011;4322;51.104;-4.162;2023-04-25T12:10:36;1.20;;;1.20;;
8568;SDS011;4322;51.104;-4.162;2023-04-25T12:13:17;1.10;;;1.10;;
8568;SDS011;4322;51.104;-4.162;2023-04-25T12:15:45;1.10;;;1.10;;
8568;SDS011;4322;51.104;-4.162;2023-04-25T12:18:13;0.90;;;0.90;;
8568;SDS011;4322;51.104;-4.162;2023-04-25T12:20:41;1.00;;;1.00;;
8568;SDS011;4322;51.104;-4.162;2023-04-25T12:23:10;1.10;;;1.10;;
8568;SDS011;4322;51.104;-4.162;2023-04-25T12:25:39;1.20;;;1.20;;
8568;SDS011;4322;51.104;-4.162;2023-04-25T12:28:11;1.20;;;1.20;;
8568;SDS011;4322;51.104;-4.162;2023-04-25T12:30:52;1.30;;;1.30;;
8568;SDS011;4322;51.104;-4.162;2023-04-25T12:33:20;1.20;;;1.20;;
8568;SDS011;4322;51.104;-4.162;2023-04-25T12:35:48;1.20;;;1.20;;
8568;SDS011;4322;51.104;-4.162;2023-04-25T12:38:21;1.20;;;1.20;;
8568;SDS011;4322;51.104;-4.162;2023-04-25T12:40:49;1.10;;;1.10;;
8568;SDS011;4322;51.104;-4.162;2023-04-25T12:43:17;1.00;;;1.00;;
8568;SDS011;4322;51.104;-4.162;2023-04-25T12:45:45;1.13;;;1.13;;
8568;SDS011;4322;51.104;-4.162;2023-04-25T12:48:14;1.20;;;1.20;;
8568;SDS011;4322;51.104;-4.162;2023-04-25T12:50:42;1.10;;;1.10;;
8568;SDS011;4322;51.104;-4.162;2023-04-25T12:53:10;1.13;;;1.13;;
8568;SDS011;4322;51.104;-4.162;2023-04-25T12:55:40;1.10;;;1.10;;
8568;SDS011;4322;51.104;-4.162;2023-04-25T12:58:08;1.27;;;1.27;;
8568;SDS011;4322;51.104;-4.162;2023-04-25T13:00:35;1.03;;;1.03;;
8568;SDS011;4322;51.104;-4.162;2023-04-25T13:03:04;1.20;;;1.20;;
8568;SDS011;4322;51.104;-4.162;2023-04-25T13:05:32;1.10;;;1.10;;
8568;SDS011;4322;51.104;-4.162;2023-04-25T13:08:00;1.00;;;1.00;;
8568;SDS011;4322;51.104;-4.162;2023-04-25T13:10:27;1.10;;;1.10;;
8568;SDS011;4322;51.104;-4.162;2023-04-25T13:12:57;1.20;;;1.20;;
8568;SDS011;4322;51.104;-4.162;2023-04-25T13:15:25;1.17;;;1.17;;
8568;SDS011;4322;51.104;-4.162;2023-04-25T13:17:52;1.20;;;1.20;;
8568;SDS011;4322;51.104;-4.162;2023-04-25T13:20:20;1.20;;;1.20;;
8568;SDS011;4322;51.104;-4.162;2023-04-25T13:22:48;1.30;;;1.30;;
8568;SDS011;4322;51.104;-4.162;2023-04-25T13:25:16;1.20;;;1.20;;
8568;SDS011;4322;51.104;-4.162;2023-04-25T13:27:45;1.10;;;1.10;;
8568;SDS011;4322;51.104;-4.162;2023-04-25T13:30:14;1.00;;;1.00;;
8568;SDS011;4322;51.104;-4.162;2023-04-25T13:32:42;1.00;;;1.00;;
8568;SDS011;4322;51.104;-4.162;2023-04-25T13:35:10;1.10;;;1.10;;
8568;SDS011;4322;51.104;-4.162;2023-04-25T13:37:38;1.10;;;1.10;;
8568;SDS011;4322;51.104;-4.162;2023-04-25T13:40:08;1.10;;;1.10;;
8568;SDS011;4322;51.104;-4.162;2023-04-25T13:42:36;1.10;;;1.10;;
8568;SDS011;4322;51.104;-4.162;2023-04-25T13:45:05;1.00;;;1.00;;
8568;SDS011;4322;51.104;-4.162;2023-04-25T13:47:34;1.20;;;1.20;;
8568;SDS011;4322;51.104;-4.162;2023-04-25T13:50:02;1.20;;;1.20;;
8568;SDS011;4322;51.104;-4.162;2023-04-25T13:52:30;1.10;;;1.10;;
8568;SDS011;4322;51.104;-4.162;2023-04-25T13:54:58;1.20;;;1.20;;
8568;SDS011;4322;51.104;-4.162;2023-04-25T13:57:26;1.10;;;1.10;;
8568;SDS011;4322;51.104;-4.162;2023-04-25T13:59:53;1.10;;;1.10;;
8568;SDS011;4322;51.104;-4.162;2023-04-25T14:02:21;1.10;;;1.10;;
8568;SDS011;4322;51.104;-4.162;2023-04-25T14:04:50;1.20;;;1.20;;
8568;SDS011;4322;51.104;-4.162;2023-04-25T14:07:18;1.20;;;1.20;;
8568;SDS011;4322;51.104;-4.162;2023-04-25T14:09:47;1.10;;;1.10;;
8568;SDS011;4322;51.104;-4.162;2023-04-25T14:12:15;1.20;;;1.20;;
8568;SDS011;4322;51.104;-4.162;2023-04-25T14:14:43;1.20;;;1.20;;
8568;SDS011;4322;51.104;-4.162;2023-04-25T14:17:12;1.10;;;1.10;;
8568;SDS011;4322;51.104;-4.162;2023-04-25T14:19:39;1.27;;;1.27;;
8568;SDS011;4322;51.104;-4.162;2023-04-25T14:22:11;1.17;;;1.17;;
8568;SDS011;4322;51.104;-4.162;2023-04-25T14:24:39;1.03;;;1.03;;
8568;SDS011;4322;51.104;-4.162;2023-04-25T14:27:06;1.10;;;1.10;;
8568;SDS011;4322;51.104;-4.162;2023-04-25T14:29:34;1.10;;;1.10;;
8568;SDS011;4322;51.104;-4.162;2023-04-25T14:32:02;1.10;;;1.10;;
8568;SDS011;4322;51.104;-4.162;2023-04-25T14:34:31;0.90;;;0.90;;
8568;SDS011;4322;51.104;-4.162;2023-04-25T14:36:59;1.07;;;1.07;;
8568;SDS011;4322;51.104;-4.162;2023-04-25T14:39:28;0.80;;;0.80;;
8568;SDS011;4322;51.104;-4.162;2023-04-25T14:41:56;1.07;;;1.07;;
8568;SDS011;4322;51.104;-4.162;2023-04-25T14:44:24;1.00;;;1.00;;
8568;SDS011;4322;51.104;-4.162;2023-04-25T14:46:52;1.10;;;1.10;;
8568;SDS011;4322;51.104;-4.162;2023-04-25T14:49:20;1.13;;;1.13;;
8568;SDS011;4322;51.104;-4.162;2023-04-25T14:51:47;1.00;;;1.00;;
8568;SDS011;4322;51.104;-4.162;2023-04-25T14:54:17;1.10;;;1.10;;
8568;SDS011;4322;51.104;-4.162;2023-04-25T14:56:46;0.90;;;0.90;;
8568;SDS011;4322;51.104;-4.162;2023-04-25T14:59:14;1.00;;;1.00;;
8568;SDS011;4322;51.104;-4.162;2023-04-25T15:01:41;1.13;;;1.13;;
8568;SDS011;4322;51.104;-4.162;2023-04-25T15:04:10;1.00;;;1.00;;
8568;SDS011;4322;51.104;-4.162;2023-04-25T15:06:39;1.00;;;1.00;;
8568;SDS011;4322;51.104;-4.162;2023-04-25T15:09:06;1.10;;;1.10;;
8568;SDS011;4322;51.104;-4.162;2023-04-25T15:11:34;1.00;;;1.00;;